createdAt,value
2023-01-04T00:01:29.906Z,6.45
2023-01-04T00:03:56.647Z,4.85
2023-01-04T00:06:23.076Z,6.45
2023-01-04T00:08:49.421Z,8.30
2023-01-04T00:11:18.168Z,8.35
2023-01-04T00:13:45.956Z,7.65
2023-01-04T00:16:15.411Z,6.20
2023-01-04T00:18:42.282Z,7.47
2023-01-04T00:21:10.749Z,5.43
2023-01-04T00:23:38.903Z,6.47
2023-01-04T00:26:10.771Z,7.95
2023-01-04T00:28:37.867Z,5.65
2023-01-04T00:31:09.985Z,7.70
2023-01-04T00:33:36.695Z,9.52
2023-01-04T00:36:08.150Z,7.07
2023-01-04T00:38:35.465Z,6.97
2023-01-04T00:41:02.864Z,6.53
2023-01-04T00:43:29.629Z,5.53
2023-01-04T00:45:56.148Z,7.10
2023-01-04T00:48:22.663Z,8.13
2023-01-04T00:50:50.122Z,7.70
2023-01-04T00:53:18.319Z,6.80
2023-01-04T00:55:45.367Z,9.02
2023-01-04T00:58:12.397Z,8.73
2023-01-04T01:00:39.244Z,4.22
2023-01-04T01:03:06.410Z,7.75
2023-01-04T01:05:34.572Z,5.55
2023-01-04T01:08:01.584Z,5.72
2023-01-04T01:10:27.959Z,6.45
2023-01-04T01:12:54.316Z,6.03
2023-01-04T01:15:20.647Z,6.15
2023-01-04T01:17:47.008Z,8.52
2023-01-04T01:20:13.356Z,6.47
2023-01-04T01:22:39.831Z,7.57
2023-01-04T01:25:06.520Z,4.45
2023-01-04T01:27:32.877Z,5.70
2023-01-04T01:29:59.333Z,5.75
2023-01-04T01:32:25.668Z,5.13
2023-01-04T01:34:52.040Z,6.68
2023-01-04T01:37:18.407Z,6.20
2023-01-04T01:39:45.001Z,5.50
2023-01-04T01:42:21.764Z,4.43
2023-01-04T01:45:00.607Z,3.50
2023-01-04T01:47:41.643Z,5.00
2023-01-04T01:50:20.411Z,5.00
2023-01-04T01:52:47.806Z,5.25
2023-01-04T01:55:14.272Z,3.78
2023-01-04T01:57:41.833Z,4.22
2023-01-04T02:00:12.624Z,4.40
2023-01-04T02:02:57.508Z,6.55
2023-01-04T02:05:27.197Z,4.82
2023-01-04T02:07:54.124Z,5.13
2023-01-04T02:10:20.987Z,3.95
2023-01-04T02:12:47.534Z,3.58
2023-01-04T02:15:14.023Z,3.63
2023-01-04T02:18:10.968Z,4.65
2023-01-04T02:20:43.576Z,5.10
2023-01-04T02:23:39.642Z,3.50
2023-01-04T02:26:46.106Z,3.20
2023-01-04T02:29:30.891Z,4.07
2023-01-04T02:32:01.288Z,3.78
2023-01-04T02:34:58.644Z,4.78
2023-01-04T02:37:40.046Z,3.83
2023-01-04T02:40:20.893Z,4.72
2023-01-04T02:43:03.135Z,4.82
2023-01-04T02:45:37.929Z,4.57
2023-01-04T02:48:06.230Z,3.88
2023-01-04T02:50:49.985Z,3.63
2023-01-04T02:53:21.392Z,4.43
2023-01-04T02:56:00.050Z,4.90
2023-01-04T02:58:59.259Z,4.05
2023-01-04T03:01:42.310Z,2.20
2023-01-04T03:04:31.026Z,4.93
2023-01-04T03:07:09.266Z,5.10
2023-01-04T03:12:10.539Z,3.72
2023-01-04T03:14:46.943Z,4.28
2023-01-04T03:17:17.293Z,3.88
2023-01-04T03:19:45.553Z,5.47
2023-01-04T03:22:13.987Z,6.75
2023-01-04T03:24:40.455Z,3.88
2023-01-04T03:27:08.291Z,5.75
2023-01-04T03:29:36.912Z,4.68
2023-01-04T03:32:13.892Z,5.13
2023-01-04T03:34:40.915Z,6.82
2023-01-04T03:37:31.659Z,5.55
2023-01-04T03:40:10.586Z,5.90
2023-01-04T03:42:48.909Z,6.65
2023-01-04T03:45:23.752Z,6.20
2023-01-04T03:48:18.005Z,8.02
2023-01-04T03:50:51.917Z,5.40
2023-01-04T03:53:20.487Z,8.30
2023-01-04T03:55:48.757Z,5.60
2023-01-04T03:58:15.563Z,8.55
2023-01-04T04:00:42.041Z,5.78
2023-01-04T04:03:08.458Z,6.00
2023-01-04T04:05:43.930Z,5.90
2023-01-04T04:08:10.259Z,6.63
2023-01-04T04:10:36.620Z,8.27
2023-01-04T04:13:03.131Z,6.43
2023-01-04T04:15:29.686Z,6.25
2023-01-04T04:17:56.028Z,7.20
2023-01-04T04:20:22.413Z,7.53
2023-01-04T04:22:48.885Z,7.25
2023-01-04T04:25:15.400Z,7.55
2023-01-04T04:27:41.710Z,8.32
2023-01-04T04:30:08.724Z,8.15
2023-01-04T04:32:35.058Z,6.82
2023-01-04T04:35:01.530Z,8.25
2023-01-04T04:37:27.879Z,9.55
2023-01-04T04:39:54.235Z,8.70
2023-01-04T04:42:20.688Z,7.88
2023-01-04T04:44:47.031Z,10.27
2023-01-04T04:47:13.405Z,9.23
2023-01-04T04:49:39.781Z,9.05
2023-01-04T04:52:06.146Z,7.90
2023-01-04T04:54:32.610Z,8.27
2023-01-04T04:56:59.003Z,9.73
2023-01-04T04:59:25.336Z,9.77
2023-01-04T05:01:52.069Z,9.25
2023-01-04T05:04:18.474Z,8.15
2023-01-04T05:06:46.904Z,7.80
2023-01-04T05:09:14.471Z,8.27
2023-01-04T05:11:41.176Z,8.50
2023-01-04T05:14:08.360Z,9.00
2023-01-04T05:16:35.252Z,8.90
2023-01-04T05:19:02.088Z,8.45
2023-01-04T05:21:28.488Z,9.10
2023-01-04T05:23:54.835Z,8.95
2023-01-04T05:26:21.171Z,8.98
2023-01-04T05:28:53.407Z,8.88
2023-01-04T05:31:20.557Z,10.48
2023-01-04T05:33:46.986Z,8.80
2023-01-04T05:36:13.371Z,9.10
2023-01-04T05:38:39.867Z,9.48
2023-01-04T05:41:06.246Z,7.45
2023-01-04T05:43:32.836Z,7.65
2023-01-04T05:45:59.307Z,8.48
2023-01-04T05:48:25.757Z,7.53
2023-01-04T05:50:53.504Z,8.07
2023-01-04T05:53:19.908Z,7.90
2023-01-04T05:55:48.424Z,7.65
2023-01-04T05:58:15.160Z,6.10
2023-01-04T06:00:41.655Z,6.68
2023-01-04T06:03:08.435Z,7.07
2023-01-04T06:05:34.915Z,6.00
2023-01-04T06:08:01.325Z,5.82
2023-01-04T06:10:27.665Z,6.38
2023-01-04T06:12:54.016Z,6.85
2023-01-04T06:15:20.371Z,6.38
2023-01-04T06:17:46.782Z,7.85
2023-01-04T06:20:13.317Z,7.18
2023-01-04T06:22:41.391Z,6.95
2023-01-04T06:25:08.829Z,6.15
2023-01-04T06:27:35.329Z,6.55
2023-01-04T06:30:02.048Z,5.93
2023-01-04T06:32:28.428Z,5.22
2023-01-04T06:34:54.831Z,5.35
2023-01-04T06:37:21.279Z,6.35
2023-01-04T06:39:47.669Z,5.30
2023-01-04T06:42:14.059Z,8.70
2023-01-04T06:44:40.428Z,7.47
2023-01-04T06:47:06.776Z,4.82
2023-01-04T06:49:33.239Z,4.30
2023-01-04T06:51:59.775Z,6.22
2023-01-04T06:54:26.201Z,5.20
2023-01-04T06:56:52.584Z,5.13
2023-01-04T06:59:19.176Z,5.22
2023-01-04T07:01:45.626Z,5.57
2023-01-04T07:04:12.021Z,6.47
2023-01-04T07:06:38.405Z,6.78
2023-01-04T07:09:04.845Z,6.85
2023-01-04T07:11:31.435Z,6.55
2023-01-04T07:13:57.884Z,7.93
2023-01-04T07:16:24.275Z,7.53
2023-01-04T07:18:50.676Z,8.38
2023-01-04T07:21:17.006Z,6.85
2023-01-04T07:23:43.730Z,8.70
2023-01-04T07:26:10.210Z,8.45
2023-01-04T07:28:36.555Z,10.55
2023-01-04T07:31:07.748Z,8.95
2023-01-04T07:33:34.377Z,7.22
2023-01-04T07:36:05.427Z,8.75
2023-01-04T07:38:33.914Z,7.93
2023-01-04T07:41:00.774Z,7.18
2023-01-04T07:43:28.558Z,9.48
2023-01-04T07:45:55.403Z,9.85
2023-01-04T07:48:21.971Z,7.72
2023-01-04T07:50:49.796Z,9.85
2023-01-04T07:53:16.160Z,10.05
2023-01-04T07:55:42.561Z,10.25
2023-01-04T07:58:09.129Z,9.25
2023-01-04T08:00:35.623Z,10.52
2023-01-04T08:03:02.072Z,11.35
2023-01-04T08:05:31.503Z,8.85
2023-01-04T08:07:57.908Z,9.35
2023-01-04T08:10:24.299Z,11.13
2023-01-04T08:12:50.697Z,8.13
2023-01-04T08:15:17.238Z,9.43
2023-01-04T08:17:43.666Z,10.90
2023-01-04T08:20:10.506Z,10.00
2023-01-04T08:22:36.887Z,8.52
2023-01-04T08:25:05.034Z,9.63
2023-01-04T08:27:31.819Z,8.05
2023-01-04T08:29:58.464Z,9.25
2023-01-04T08:32:25.068Z,9.13
2023-01-04T08:34:51.540Z,7.97
2023-01-04T08:37:17.919Z,7.93
2023-01-04T08:39:48.894Z,9.55
2023-01-04T08:42:22.490Z,9.02
2023-01-04T08:44:59.177Z,9.05
2023-01-04T08:47:26.831Z,7.70
2023-01-04T08:49:53.229Z,10.98
2023-01-04T08:52:19.641Z,6.65
2023-01-04T08:54:46.088Z,6.80
2023-01-04T08:57:12.499Z,6.20
2023-01-04T08:59:38.918Z,6.70
2023-01-04T09:02:18.834Z,6.10
2023-01-04T09:04:45.412Z,5.93
2023-01-04T09:07:11.802Z,6.00
2023-01-04T09:09:38.351Z,7.13
2023-01-04T09:12:04.992Z,7.47
2023-01-04T09:14:31.347Z,6.43
2023-01-04T09:16:57.763Z,7.43
2023-01-04T09:19:24.152Z,5.95
2023-01-04T09:21:50.681Z,7.88
2023-01-04T09:24:17.221Z,5.45
2023-01-04T09:26:43.587Z,6.65
2023-01-04T09:29:11.389Z,4.22
2023-01-04T09:31:37.905Z,4.45
2023-01-04T09:34:14.264Z,6.30
2023-01-04T09:36:42.082Z,4.72
2023-01-04T09:39:11.916Z,4.60
2023-01-04T09:41:55.640Z,5.35
2023-01-04T09:47:36.709Z,2.78
2023-01-04T09:50:15.666Z,4.30
2023-01-04T09:52:51.133Z,3.88
2023-01-04T09:55:37.148Z,3.53
2023-01-04T09:58:16.482Z,3.88
2023-01-04T10:00:51.501Z,2.90
2023-01-04T10:03:28.250Z,3.85
2023-01-04T10:05:56.057Z,3.88
2023-01-04T10:08:23.071Z,3.50
2023-01-04T10:10:59.224Z,4.75
2023-01-04T10:13:49.938Z,3.60
2023-01-04T10:22:59.885Z,3.40
2023-01-04T10:25:41.165Z,2.83
2023-01-04T10:28:25.741Z,3.50
2023-01-04T10:31:38.480Z,4.53
2023-01-04T10:34:01.855Z,2.40
2023-01-04T10:36:30.673Z,2.35
2023-01-04T10:39:15.015Z,2.55
2023-01-04T10:41:55.498Z,3.05
2023-01-04T10:44:34.071Z,4.75
2023-01-04T10:47:15.655Z,3.75
2023-01-04T10:50:00.853Z,3.15
2023-01-04T10:52:50.065Z,3.72
2023-01-04T10:55:31.198Z,3.80
2023-01-04T10:58:16.420Z,3.00
2023-01-04T11:01:10.111Z,4.05
2023-01-04T11:03:53.553Z,3.72
2023-01-04T11:06:35.381Z,3.20
2023-01-04T11:09:24.568Z,3.92
2023-01-04T11:11:53.237Z,5.55
2023-01-04T11:14:19.657Z,3.80
2023-01-04T11:16:52.606Z,3.80
2023-01-04T11:19:19.106Z,4.22
2023-01-04T11:22:02.432Z,4.82
2023-01-04T11:24:33.235Z,2.67
2023-01-04T11:27:11.308Z,2.63
2023-01-04T11:29:54.743Z,3.92
2023-01-04T11:32:34.124Z,3.45
2023-01-04T11:35:00.710Z,2.40
2023-01-04T11:37:36.872Z,3.63
2023-01-04T11:40:18.771Z,2.97
2023-01-04T11:42:47.552Z,2.65
2023-01-04T11:45:27.767Z,3.47
2023-01-04T11:47:56.254Z,3.53
2023-01-04T11:50:41.972Z,2.15
2023-01-04T11:53:37.704Z,2.83
2023-01-04T11:56:23.433Z,2.75
2023-01-04T11:59:08.364Z,7.90
2023-01-04T12:01:38.237Z,2.50
2023-01-04T12:04:11.401Z,4.32
2023-01-04T12:06:57.215Z,2.40
2023-01-04T12:09:23.782Z,2.45
2023-01-04T12:11:52.791Z,3.45
2023-01-04T12:14:26.698Z,3.47
2023-01-04T12:16:56.393Z,5.10
2023-01-04T12:19:24.232Z,5.57
2023-01-04T12:21:55.297Z,3.30
2023-01-04T12:24:25.223Z,4.57
2023-01-04T12:26:53.261Z,8.80
2023-01-04T12:29:22.467Z,6.30
2023-01-04T12:31:49.450Z,7.68
2023-01-04T12:34:15.803Z,8.88
2023-01-04T12:36:42.177Z,7.10
2023-01-04T12:39:14.429Z,7.85
2023-01-04T12:41:40.709Z,8.05
2023-01-04T12:44:38.010Z,6.05
2023-01-04T12:47:19.531Z,8.50
2023-01-04T12:49:59.270Z,5.18
2023-01-04T12:52:43.083Z,9.73
2023-01-04T12:55:33.222Z,7.93
2023-01-04T12:58:04.189Z,10.95
2023-01-04T13:00:52.584Z,6.55
2023-01-04T13:03:20.682Z,8.93
2023-01-04T13:06:00.958Z,9.57
2023-01-04T13:08:28.215Z,8.45
2023-01-04T13:10:56.515Z,8.18
2023-01-04T13:13:56.504Z,10.90
2023-01-04T13:16:45.233Z,8.95
2023-01-04T13:19:24.006Z,9.43
2023-01-04T13:21:52.603Z,9.23
2023-01-04T13:24:27.368Z,9.30
2023-01-04T13:26:54.546Z,9.27
2023-01-04T13:29:23.410Z,9.52
2023-01-04T13:31:58.854Z,9.23
2023-01-04T13:34:30.271Z,10.70
2023-01-04T13:37:06.690Z,8.57
2023-01-04T13:39:34.190Z,7.75
2023-01-04T13:42:01.199Z,7.53
2023-01-04T13:45:17.963Z,7.55
2023-01-04T13:47:29.889Z,9.25
2023-01-04T13:49:56.414Z,9.05
2023-01-04T13:55:23.775Z,10.68
2023-01-04T13:58:07.122Z,6.35
2023-01-04T14:00:49.948Z,8.63
2023-01-04T14:03:30.241Z,6.75
2023-01-04T14:06:12.124Z,9.27
2023-01-04T14:09:02.772Z,7.63
2023-01-04T14:11:41.449Z,8.00
2023-01-04T14:14:25.986Z,10.18
2023-01-04T14:17:05.529Z,6.57
2023-01-04T14:19:44.034Z,9.23
2023-01-04T14:22:49.071Z,7.43
2023-01-04T14:25:33.612Z,6.70
2023-01-04T14:28:18.871Z,8.82
2023-01-04T14:30:54.181Z,8.13
2023-01-04T14:33:35.852Z,8.13
2023-01-04T14:36:04.166Z,10.13
2023-01-04T14:38:35.072Z,9.52
2023-01-04T14:41:23.953Z,7.55
2023-01-04T14:44:05.450Z,8.25
2023-01-04T14:46:32.684Z,8.90
2023-01-04T14:48:59.662Z,10.50
2023-01-04T14:51:41.078Z,8.70
2023-01-04T14:54:09.610Z,9.88
2023-01-04T14:56:36.006Z,9.85
2023-01-04T14:59:02.528Z,15.85
2023-01-04T15:01:28.976Z,9.20
2023-01-04T15:03:55.659Z,6.20
2023-01-04T15:06:22.279Z,10.65
2023-01-04T15:08:48.702Z,9.63
2023-01-04T15:11:15.916Z,9.40
2023-01-04T15:13:42.383Z,11.45
2023-01-04T15:16:12.339Z,8.70
2023-01-04T15:18:40.182Z,11.27
2023-01-04T15:21:07.012Z,13.48
2023-01-04T15:23:33.407Z,7.72
2023-01-04T15:25:59.743Z,9.38
2023-01-04T15:28:26.121Z,9.75
2023-01-04T15:30:52.605Z,11.10
2023-01-04T15:33:19.622Z,10.13
2023-01-04T15:35:46.617Z,8.32
2023-01-04T15:38:17.937Z,11.85
2023-01-04T15:40:44.931Z,7.57
2023-01-04T15:43:11.244Z,10.07
2023-01-04T15:45:39.156Z,9.30
2023-01-04T15:48:07.562Z,6.28
2023-01-04T15:50:36.599Z,8.32
2023-01-04T15:53:03.496Z,6.88
2023-01-04T15:55:36.052Z,7.90
2023-01-04T15:58:03.621Z,12.63
2023-01-04T16:00:30.247Z,10.27
2023-01-04T16:02:56.742Z,9.68
2023-01-04T16:05:23.105Z,12.07
2023-01-04T16:07:49.769Z,10.60
2023-01-04T16:10:16.237Z,10.00
2023-01-04T16:12:42.710Z,9.43
2023-01-04T16:15:14.353Z,10.02
2023-01-04T16:17:41.876Z,13.05
2023-01-04T16:20:09.716Z,11.20
2023-01-04T16:22:36.380Z,12.13
2023-01-04T16:25:12.192Z,10.80
2023-01-04T16:27:39.803Z,14.35
2023-01-04T16:30:10.578Z,11.75
2023-01-04T16:32:39.862Z,13.95
2023-01-04T16:35:06.411Z,8.63
2023-01-04T16:37:32.787Z,10.57
2023-01-04T16:40:07.802Z,19.35
2023-01-04T16:42:36.206Z,13.23
2023-01-04T16:45:02.620Z,13.43
2023-01-04T16:47:29.130Z,14.60
2023-01-04T16:49:55.588Z,17.67
2023-01-04T16:52:22.033Z,12.38
2023-01-04T16:54:48.793Z,11.48
2023-01-04T16:57:15.184Z,17.48
2023-01-04T16:59:41.565Z,15.85
2023-01-04T17:02:10.589Z,15.85
2023-01-04T17:04:37.170Z,17.58
2023-01-04T17:07:03.544Z,20.13
2023-01-04T17:09:29.899Z,14.05
2023-01-04T17:12:45.460Z,18.98
2023-01-04T17:14:42.564Z,20.33
2023-01-04T17:17:08.921Z,11.48
2023-01-04T17:19:35.341Z,18.88
2023-01-04T17:22:01.675Z,15.23
2023-01-04T17:24:28.235Z,16.92
2023-01-04T17:26:54.591Z,19.35
2023-01-04T17:29:20.965Z,18.70
2023-01-04T17:31:47.413Z,14.10
2023-01-04T17:34:20.194Z,16.98
2023-01-04T17:36:49.189Z,14.93
2023-01-04T17:39:15.579Z,18.10
2023-01-04T17:41:41.934Z,17.40
2023-01-04T17:44:09.675Z,14.23
2023-01-04T17:46:37.012Z,14.40
2023-01-04T17:49:25.581Z,16.20
2023-01-04T17:51:53.384Z,13.93
2023-01-04T17:54:19.739Z,17.20
2023-01-04T17:56:46.085Z,14.82
2023-01-04T17:59:12.474Z,17.20
2023-01-04T18:01:39.357Z,12.40
2023-01-04T18:04:08.637Z,12.30
2023-01-04T18:06:36.718Z,14.05
2023-01-04T18:09:04.981Z,17.35
2023-01-04T18:11:31.400Z,15.88
2023-01-04T18:13:58.783Z,14.55
2023-01-04T18:16:27.160Z,14.05
2023-01-04T18:18:55.523Z,16.73
2023-01-04T18:21:28.885Z,17.27
2023-01-04T18:29:36.197Z,15.90
2023-01-04T18:32:02.794Z,14.30
2023-01-04T18:34:29.252Z,14.57
2023-01-04T18:36:55.826Z,17.30
2023-01-04T18:39:22.474Z,15.52
2023-01-04T18:41:48.925Z,14.95
2023-01-04T18:47:02.724Z,12.60
2023-01-04T18:49:29.177Z,13.90
2023-01-04T18:51:57.570Z,16.90
2023-01-04T18:54:23.925Z,20.48
2023-01-04T18:56:53.209Z,15.98
2023-01-04T18:59:23.775Z,14.65
2023-01-04T19:01:50.316Z,13.18
2023-01-04T19:04:16.731Z,19.25
2023-01-04T19:06:43.222Z,17.48
2023-01-04T19:09:09.724Z,17.80
2023-01-04T19:11:36.171Z,19.17
2023-01-04T19:14:03.523Z,17.00
2023-01-04T19:16:29.931Z,18.73
2023-01-04T19:18:58.363Z,15.38
2023-01-04T19:21:25.071Z,15.48
2023-01-04T19:23:51.423Z,22.58
2023-01-04T19:26:18.308Z,24.15
2023-01-04T19:28:46.032Z,19.45
2023-01-04T19:31:13.646Z,24.42
2023-01-04T19:33:40.354Z,23.27
2023-01-04T19:36:08.393Z,17.33
2023-01-04T19:38:38.079Z,24.17
2023-01-04T19:41:05.233Z,22.13
2023-01-04T19:43:31.928Z,18.65
2023-01-04T19:45:58.656Z,20.83
2023-01-04T19:48:25.068Z,20.48
2023-01-04T19:51:30.218Z,24.55
2023-01-04T19:53:56.791Z,19.00
2023-01-04T19:56:26.458Z,21.90
2023-01-04T19:58:52.895Z,32.15
2023-01-04T20:01:21.177Z,30.30
2023-01-04T20:03:49.699Z,21.05
2023-01-04T20:06:17.164Z,22.10
2023-01-04T20:08:44.963Z,25.38
2023-01-04T20:11:12.468Z,20.38
2023-01-04T20:13:39.932Z,21.50
2023-01-04T20:16:06.644Z,24.15
2023-01-04T20:18:34.063Z,18.33
2023-01-04T20:21:00.563Z,18.17
2023-01-04T20:23:26.921Z,20.45
2023-01-04T20:25:54.630Z,18.25
2023-01-04T20:28:23.799Z,25.83
2023-01-04T20:31:04.775Z,19.10
2023-01-04T20:33:31.547Z,22.25
2023-01-04T20:35:58.216Z,23.40
2023-01-04T20:38:24.544Z,23.60
2023-01-04T20:40:51.131Z,20.95
2023-01-04T20:43:18.522Z,20.38
2023-01-04T20:45:47.169Z,21.58
2023-01-04T20:48:15.117Z,23.30
2023-01-04T20:50:41.529Z,29.27
2023-01-04T20:53:08.131Z,16.48
2023-01-04T20:55:42.040Z,23.13
2023-01-04T20:58:09.227Z,26.88
2023-01-04T21:00:39.102Z,14.40
2023-01-04T21:03:07.341Z,18.08
2023-01-04T21:05:51.965Z,18.30
2023-01-04T21:08:18.491Z,18.80
2023-01-04T21:10:47.351Z,24.45
2023-01-04T21:13:13.769Z,19.40
2023-01-04T21:15:40.347Z,22.27
2023-01-04T21:18:07.286Z,19.30
2023-01-04T21:20:33.886Z,23.67
2023-01-04T21:23:00.323Z,23.40
2023-01-04T21:25:27.115Z,21.80
2023-01-04T21:27:53.741Z,21.75
2023-01-04T21:30:21.158Z,25.70
2023-01-04T21:32:47.626Z,17.60
2023-01-04T21:35:14.039Z,20.38
2023-01-04T21:37:40.419Z,20.48
2023-01-04T21:40:07.241Z,14.95
2023-01-04T21:42:33.695Z,17.95
2023-01-04T21:45:00.066Z,15.35
2023-01-04T21:47:26.582Z,14.18
2023-01-04T21:49:53.126Z,20.67
2023-01-04T21:52:19.722Z,23.50
2023-01-04T21:54:46.067Z,17.48
2023-01-04T21:57:12.405Z,20.02
2023-01-04T21:59:38.937Z,18.25
2023-01-04T22:02:05.796Z,16.25
2023-01-04T22:04:32.808Z,19.17
2023-01-04T22:06:59.659Z,19.63
2023-01-04T22:09:26.097Z,15.57
2023-01-04T22:11:52.547Z,17.70
2023-01-04T22:14:19.104Z,20.30
2023-01-04T22:16:45.531Z,19.13
2023-01-04T22:19:13.130Z,19.27
2023-01-04T22:21:40.459Z,19.60
2023-01-04T22:24:09.910Z,25.00
2023-01-04T22:26:36.271Z,14.18
2023-01-04T22:29:02.723Z,20.52
2023-01-04T22:31:29.980Z,20.10
2023-01-04T22:33:56.387Z,21.33
2023-01-04T22:36:23.904Z,25.58
2023-01-04T22:38:55.563Z,19.95
2023-01-04T22:41:25.083Z,18.67
2023-01-04T22:43:59.576Z,15.27
2023-01-04T22:46:27.493Z,16.58
2023-01-04T22:48:54.185Z,15.25
2023-01-04T22:51:21.713Z,16.77
2023-01-04T22:53:48.560Z,15.23
2023-01-04T22:56:19.539Z,17.35
2023-01-04T22:58:52.374Z,21.58
2023-01-04T23:01:20.309Z,19.63
2023-01-04T23:03:46.810Z,18.75
2023-01-04T23:06:13.299Z,19.13
2023-01-04T23:08:40.571Z,19.67
2023-01-04T23:11:11.696Z,21.48
2023-01-04T23:13:38.273Z,18.65
2023-01-04T23:16:06.518Z,19.50
2023-01-04T23:18:33.880Z,20.60
2023-01-04T23:21:00.859Z,18.25
2023-01-04T23:23:27.808Z,15.40
2023-01-04T23:25:54.539Z,22.48
2023-01-04T23:28:20.927Z,19.35
2023-01-04T23:30:47.394Z,17.42
2023-01-04T23:33:13.790Z,22.48
2023-01-04T23:35:40.092Z,18.70
2023-01-04T23:38:06.464Z,22.52
2023-01-04T23:40:32.815Z,19.23
2023-01-04T23:42:59.231Z,19.90
2023-01-04T23:45:26.938Z,16.65
2023-01-04T23:47:53.403Z,23.88
2023-01-04T23:50:20.618Z,20.92
2023-01-04T23:52:46.938Z,13.60
2023-01-04T23:55:13.340Z,17.23
2023-01-04T23:57:39.705Z,13.10
